sensor_id;sensor_type;location;lat;lon;timestamp;P1;durP1;ratioP1;P2;durP2;ratioP2
61840;SDS011;47773;53.174;6.614;2023-06-14T00:01:51;13.88;;;3.97;;
61840;SDS011;47773;53.174;6.614;2023-06-14T00:04:17;11.52;;;3.63;;
61840;SDS011;47773;53.174;6.614;2023-06-14T00:06:45;10.52;;;3.55;;
61840;SDS011;47773;53.174;6.614;2023-06-14T00:09:11;15.57;;;3.90;;
61840;SDS011;47773;53.174;6.614;2023-06-14T00:11:42;8.75;;;3.70;;
61840;SDS011;47773;53.174;6.614;2023-06-14T00:14:08;14.55;;;3.88;;
61840;SDS011;47773;53.174;6.614;2023-06-14T00:16:34;14.60;;;3.88;;
61840;SDS011;47773;53.174;6.614;2023-06-14T00:19:03;11.30;;;3.75;;
61840;SDS011;47773;53.174;6.614;2023-06-14T00:21:30;13.85;;;3.63;;
61840;SDS011;47773;53.174;6.614;2023-06-14T00:23:57;11.30;;;3.78;;
61840;SDS011;47773;53.174;6.614;2023-06-14T00:26:23;11.02;;;3.80;;
61840;SDS011;47773;53.174;6.614;2023-06-14T00:28:48;12.35;;;4.20;;
61840;SDS011;47773;53.174;6.614;2023-06-14T00:31:14;13.90;;;3.67;;
61840;SDS011;47773;53.174;6.614;2023-06-14T00:33:40;16.58;;;3.60;;
61840;SDS011;47773;53.174;6.614;2023-06-14T00:36:06;9.25;;;3.75;;
61840;SDS011;47773;53.174;6.614;2023-06-14T00:38:31;14.50;;;3.90;;
61840;SDS011;47773;53.174;6.614;2023-06-14T00:40:57;12.05;;;3.75;;
61840;SDS011;47773;53.174;6.614;2023-06-14T00:43:22;13.27;;;4.07;;
61840;SDS011;47773;53.174;6.614;2023-06-14T00:45:48;9.02;;;3.40;;
61840;SDS011;47773;53.174;6.614;2023-06-14T00:48:14;10.98;;;4.22;;
61840;SDS011;47773;53.174;6.614;2023-06-14T00:50:40;17.73;;;4.00;;
61840;SDS011;47773;53.174;6.614;2023-06-14T00:53:07;9.63;;;3.63;;
61840;SDS011;47773;53.174;6.614;2023-06-14T00:55:32;11.18;;;3.90;;
61840;SDS011;47773;53.174;6.614;2023-06-14T00:57:58;13.65;;;3.80;;
61840;SDS011;47773;53.174;6.614;2023-06-14T01:00:25;14.63;;;3.88;;
61840;SDS011;47773;53.174;6.614;2023-06-14T01:02:50;7.93;;;3.53;;
61840;SDS011;47773;53.174;6.614;2023-06-14T01:05:16;11.77;;;3.70;;
61840;SDS011;47773;53.174;6.614;2023-06-14T01:13:33;14.77;;;3.88;;
61840;SDS011;47773;53.174;6.614;2023-06-14T01:16:01;11.65;;;3.58;;
61840;SDS011;47773;53.174;6.614;2023-06-14T01:18:28;8.45;;;3.50;;
61840;SDS011;47773;53.174;6.614;2023-06-14T01:20:54;14.02;;;3.63;;
61840;SDS011;47773;53.174;6.614;2023-06-14T01:23:21;11.88;;;3.33;;
61840;SDS011;47773;53.174;6.614;2023-06-14T01:25:48;12.45;;;3.47;;
61840;SDS011;47773;53.174;6.614;2023-06-14T01:28:17;11.20;;;3.53;;
61840;SDS011;47773;53.174;6.614;2023-06-14T01:30:47;7.90;;;3.10;;
61840;SDS011;47773;53.174;6.614;2023-06-14T01:33:21;14.23;;;3.60;;
61840;SDS011;47773;53.174;6.614;2023-06-14T01:35:49;10.47;;;3.80;;
61840;SDS011;47773;53.174;6.614;2023-06-14T01:38:17;7.43;;;2.95;;
61840;SDS011;47773;53.174;6.614;2023-06-14T01:40:45;11.10;;;3.13;;
61840;SDS011;47773;53.174;6.614;2023-06-14T01:43:13;9.35;;;3.28;;
61840;SDS011;47773;53.174;6.614;2023-06-14T01:45:40;12.00;;;3.63;;
61840;SDS011;47773;53.174;6.614;2023-06-14T01:48:07;7.97;;;3.60;;
61840;SDS011;47773;53.174;6.614;2023-06-14T01:50:34;14.48;;;3.80;;
61840;SDS011;47773;53.174;6.614;2023-06-14T01:53:00;10.00;;;3.72;;
61840;SDS011;47773;53.174;6.614;2023-06-14T01:55:26;15.75;;;3.33;;
61840;SDS011;47773;53.174;6.614;2023-06-14T01:57:52;10.45;;;3.60;;
61840;SDS011;47773;53.174;6.614;2023-06-14T02:00:19;10.35;;;3.60;;
61840;SDS011;47773;53.174;6.614;2023-06-14T02:02:45;8.93;;;3.30;;
61840;SDS011;47773;53.174;6.614;2023-06-14T02:05:11;13.07;;;3.28;;
61840;SDS011;47773;53.174;6.614;2023-06-14T02:07:37;11.18;;;3.20;;
61840;SDS011;47773;53.174;6.614;2023-06-14T02:10:03;13.57;;;4.00;;
61840;SDS011;47773;53.174;6.614;2023-06-14T02:12:29;12.52;;;3.65;;
61840;SDS011;47773;53.174;6.614;2023-06-14T02:14:55;9.77;;;3.47;;
61840;SDS011;47773;53.174;6.614;2023-06-14T02:17:21;8.35;;;3.28;;
61840;SDS011;47773;53.174;6.614;2023-06-14T02:19:47;16.70;;;4.05;;
61840;SDS011;47773;53.174;6.614;2023-06-14T02:22:14;11.75;;;3.72;;
61840;SDS011;47773;53.174;6.614;2023-06-14T02:24:40;8.55;;;3.40;;
61840;SDS011;47773;53.174;6.614;2023-06-14T02:27:07;17.80;;;4.10;;
61840;SDS011;47773;53.174;6.614;2023-06-14T02:29:35;12.35;;;3.28;;
61840;SDS011;47773;53.174;6.614;2023-06-14T02:32:01;24.17;;;3.78;;
61840;SDS011;47773;53.174;6.614;2023-06-14T02:34:27;14.75;;;3.60;;
61840;SDS011;47773;53.174;6.614;2023-06-14T02:36:53;11.82;;;3.80;;
61840;SDS011;47773;53.174;6.614;2023-06-14T02:39:20;10.95;;;4.03;;
61840;SDS011;47773;53.174;6.614;2023-06-14T02:41:48;10.88;;;3.92;;
61840;SDS011;47773;53.174;6.614;2023-06-14T02:44:15;9.52;;;3.90;;
61840;SDS011;47773;53.174;6.614;2023-06-14T02:46:43;14.85;;;4.10;;
61840;SDS011;47773;53.174;6.614;2023-06-14T02:49:09;8.75;;;4.07;;
61840;SDS011;47773;53.174;6.614;2023-06-14T02:51:35;11.00;;;4.40;;
61840;SDS011;47773;53.174;6.614;2023-06-14T02:54:01;7.38;;;3.92;;
61840;SDS011;47773;53.174;6.614;2023-06-14T02:56:26;12.10;;;3.85;;
61840;SDS011;47773;53.174;6.614;2023-06-14T02:58:53;15.73;;;4.57;;
61840;SDS011;47773;53.174;6.614;2023-06-14T03:01:18;11.88;;;4.20;;
61840;SDS011;47773;53.174;6.614;2023-06-14T03:03:45;9.20;;;4.40;;
61840;SDS011;47773;53.174;6.614;2023-06-14T03:06:11;9.85;;;4.65;;
61840;SDS011;47773;53.174;6.614;2023-06-14T03:08:39;14.25;;;5.43;;
61840;SDS011;47773;53.174;6.614;2023-06-14T03:11:06;11.73;;;5.03;;
61840;SDS011;47773;53.174;6.614;2023-06-14T03:13:33;15.93;;;4.65;;
61840;SDS011;47773;53.174;6.614;2023-06-14T03:16:02;15.68;;;4.32;;
61840;SDS011;47773;53.174;6.614;2023-06-14T03:18:31;10.35;;;4.35;;
61840;SDS011;47773;53.174;6.614;2023-06-14T03:21:00;19.27;;;4.70;;
61840;SDS011;47773;53.174;6.614;2023-06-14T03:23:26;10.40;;;4.60;;
61840;SDS011;47773;53.174;6.614;2023-06-14T03:25:52;12.20;;;4.60;;
61840;SDS011;47773;53.174;6.614;2023-06-14T03:28:18;11.88;;;4.68;;
61840;SDS011;47773;53.174;6.614;2023-06-14T03:30:44;12.98;;;4.47;;
61840;SDS011;47773;53.174;6.614;2023-06-14T03:33:09;10.88;;;5.15;;
61840;SDS011;47773;53.174;6.614;2023-06-14T03:35:35;12.38;;;4.55;;
61840;SDS011;47773;53.174;6.614;2023-06-14T03:38:01;18.45;;;5.30;;
61840;SDS011;47773;53.174;6.614;2023-06-14T03:40:29;12.77;;;5.68;;
61840;SDS011;47773;53.174;6.614;2023-06-14T03:42:54;16.00;;;5.60;;
61840;SDS011;47773;53.174;6.614;2023-06-14T03:45:20;11.73;;;4.95;;
61840;SDS011;47773;53.174;6.614;2023-06-14T03:47:46;13.93;;;4.78;;
61840;SDS011;47773;53.174;6.614;2023-06-14T03:50:12;12.30;;;4.95;;
61840;SDS011;47773;53.174;6.614;2023-06-14T03:52:38;17.23;;;5.72;;
61840;SDS011;47773;53.174;6.614;2023-06-14T03:55:04;17.17;;;5.38;;
61840;SDS011;47773;53.174;6.614;2023-06-14T03:57:30;15.52;;;5.80;;
61840;SDS011;47773;53.174;6.614;2023-06-14T03:59:55;16.80;;;6.18;;
61840;SDS011;47773;53.174;6.614;2023-06-14T04:02:21;11.60;;;5.32;;
61840;SDS011;47773;53.174;6.614;2023-06-14T04:04:47;19.98;;;5.93;;
61840;SDS011;47773;53.174;6.614;2023-06-14T04:07:16;10.95;;;5.90;;
61840;SDS011;47773;53.174;6.614;2023-06-14T04:09:45;11.52;;;5.47;;
61840;SDS011;47773;53.174;6.614;2023-06-14T04:12:11;16.42;;;5.85;;
61840;SDS011;47773;53.174;6.614;2023-06-14T04:14:36;15.98;;;5.80;;
61840;SDS011;47773;53.174;6.614;2023-06-14T04:17:03;14.32;;;6.05;;
61840;SDS011;47773;53.174;6.614;2023-06-14T04:19:29;12.00;;;6.30;;
61840;SDS011;47773;53.174;6.614;2023-06-14T04:21:55;17.50;;;6.10;;
61840;SDS011;47773;53.174;6.614;2023-06-14T04:24:21;19.77;;;6.35;;
61840;SDS011;47773;53.174;6.614;2023-06-14T04:26:48;22.52;;;6.60;;
61840;SDS011;47773;53.174;6.614;2023-06-14T04:29:14;14.57;;;6.40;;
61840;SDS011;47773;53.174;6.614;2023-06-14T04:31:44;18.42;;;6.43;;
61840;SDS011;47773;53.174;6.614;2023-06-14T04:34:10;19.92;;;6.45;;
61840;SDS011;47773;53.174;6.614;2023-06-14T04:36:41;15.93;;;7.03;;
61840;SDS011;47773;53.174;6.614;2023-06-14T04:39:08;14.45;;;6.43;;
61840;SDS011;47773;53.174;6.614;2023-06-14T04:41:33;19.02;;;7.55;;
61840;SDS011;47773;53.174;6.614;2023-06-14T04:44:00;18.63;;;6.68;;
61840;SDS011;47773;53.174;6.614;2023-06-14T04:46:28;18.63;;;6.72;;
61840;SDS011;47773;53.174;6.614;2023-06-14T04:48:57;21.73;;;7.18;;
61840;SDS011;47773;53.174;6.614;2023-06-14T04:51:27;15.77;;;7.32;;
61840;SDS011;47773;53.174;6.614;2023-06-14T04:53:57;22.90;;;7.78;;
61840;SDS011;47773;53.174;6.614;2023-06-14T04:56:23;16.45;;;7.72;;
61840;SDS011;47773;53.174;6.614;2023-06-14T04:58:52;18.83;;;7.72;;
61840;SDS011;47773;53.174;6.614;2023-06-14T05:01:19;16.83;;;7.53;;
61840;SDS011;47773;53.174;6.614;2023-06-14T05:03:46;28.50;;;8.30;;
61840;SDS011;47773;53.174;6.614;2023-06-14T05:06:13;21.83;;;8.30;;
61840;SDS011;47773;53.174;6.614;2023-06-14T05:08:39;21.90;;;8.57;;
61840;SDS011;47773;53.174;6.614;2023-06-14T05:11:05;17.02;;;8.35;;
61840;SDS011;47773;53.174;6.614;2023-06-14T05:13:31;19.30;;;8.90;;
61840;SDS011;47773;53.174;6.614;2023-06-14T05:15:57;18.67;;;8.40;;
61840;SDS011;47773;53.174;6.614;2023-06-14T05:18:24;19.08;;;9.00;;
61840;SDS011;47773;53.174;6.614;2023-06-14T05:20:50;20.33;;;8.25;;
61840;SDS011;47773;53.174;6.614;2023-06-14T05:23:16;39.15;;;9.85;;
61840;SDS011;47773;53.174;6.614;2023-06-14T05:25:43;25.17;;;9.20;;
61840;SDS011;47773;53.174;6.614;2023-06-14T05:28:09;23.02;;;8.85;;
61840;SDS011;47773;53.174;6.614;2023-06-14T05:30:35;19.52;;;8.55;;
61840;SDS011;47773;53.174;6.614;2023-06-14T05:33:01;21.30;;;8.82;;
61840;SDS011;47773;53.174;6.614;2023-06-14T05:35:26;23.45;;;9.00;;
61840;SDS011;47773;53.174;6.614;2023-06-14T05:37:52;22.27;;;8.63;;
61840;SDS011;47773;53.174;6.614;2023-06-14T05:40:18;33.67;;;9.43;;
61840;SDS011;47773;53.174;6.614;2023-06-14T05:42:45;25.63;;;9.15;;
61840;SDS011;47773;53.174;6.614;2023-06-14T05:45:11;25.23;;;9.13;;
61840;SDS011;47773;53.174;6.614;2023-06-14T05:47:36;20.98;;;8.68;;
61840;SDS011;47773;53.174;6.614;2023-06-14T05:50:02;30.83;;;9.30;;
61840;SDS011;47773;53.174;6.614;2023-06-14T05:52:28;23.92;;;9.13;;
61840;SDS011;47773;53.174;6.614;2023-06-14T05:54:54;18.98;;;9.65;;
61840;SDS011;47773;53.174;6.614;2023-06-14T05:57:20;22.17;;;9.52;;
61840;SDS011;47773;53.174;6.614;2023-06-14T05:59:46;21.17;;;9.27;;
61840;SDS011;47773;53.174;6.614;2023-06-14T06:02:12;27.58;;;8.75;;
61840;SDS011;47773;53.174;6.614;2023-06-14T06:04:37;21.75;;;8.90;;
61840;SDS011;47773;53.174;6.614;2023-06-14T06:07:03;24.35;;;8.20;;
61840;SDS011;47773;53.174;6.614;2023-06-14T06:09:30;22.42;;;7.75;;
61840;SDS011;47773;53.174;6.614;2023-06-14T06:11:56;19.88;;;7.85;;
61840;SDS011;47773;53.174;6.614;2023-06-14T06:14:21;17.35;;;7.80;;
61840;SDS011;47773;53.174;6.614;2023-06-14T06:16:47;20.13;;;7.80;;
61840;SDS011;47773;53.174;6.614;2023-06-14T06:19:13;16.55;;;6.68;;
61840;SDS011;47773;53.174;6.614;2023-06-14T06:21:38;15.20;;;6.30;;
61840;SDS011;47773;53.174;6.614;2023-06-14T06:24:04;17.60;;;7.15;;
61840;SDS011;47773;53.174;6.614;2023-06-14T06:26:31;15.75;;;6.55;;
61840;SDS011;47773;53.174;6.614;2023-06-14T06:28:57;19.83;;;6.40;;
61840;SDS011;47773;53.174;6.614;2023-06-14T06:31:23;16.70;;;6.68;;
61840;SDS011;47773;53.174;6.614;2023-06-14T06:33:49;15.02;;;6.50;;
61840;SDS011;47773;53.174;6.614;2023-06-14T06:36:15;20.90;;;6.80;;
61840;SDS011;47773;53.174;6.614;2023-06-14T06:38:41;14.57;;;6.60;;
61840;SDS011;47773;53.174;6.614;2023-06-14T06:41:07;14.77;;;6.40;;
61840;SDS011;47773;53.174;6.614;2023-06-14T06:43:32;18.83;;;6.47;;
61840;SDS011;47773;53.174;6.614;2023-06-14T06:45:58;17.92;;;6.03;;
61840;SDS011;47773;53.174;6.614;2023-06-14T06:48:24;14.65;;;6.15;;
61840;SDS011;47773;53.174;6.614;2023-06-14T06:50:50;14.88;;;6.18;;
61840;SDS011;47773;53.174;6.614;2023-06-14T06:53:16;12.85;;;6.00;;
61840;SDS011;47773;53.174;6.614;2023-06-14T06:55:43;18.38;;;6.18;;
61840;SDS011;47773;53.174;6.614;2023-06-14T06:58:10;16.77;;;5.75;;
61840;SDS011;47773;53.174;6.614;2023-06-14T07:00:37;12.80;;;5.13;;
61840;SDS011;47773;53.174;6.614;2023-06-14T07:03:02;10.90;;;5.35;;
61840;SDS011;47773;53.174;6.614;2023-06-14T07:05:29;15.95;;;6.00;;
61840;SDS011;47773;53.174;6.614;2023-06-14T07:07:55;12.02;;;5.28;;
61840;SDS011;47773;53.174;6.614;2023-06-14T07:10:20;15.93;;;5.47;;
61840;SDS011;47773;53.174;6.614;2023-06-14T07:12:46;10.38;;;5.13;;
61840;SDS011;47773;53.174;6.614;2023-06-14T07:15:12;13.10;;;5.50;;
61840;SDS011;47773;53.174;6.614;2023-06-14T07:17:38;9.75;;;5.13;;
61840;SDS011;47773;53.174;6.614;2023-06-14T07:20:04;14.00;;;4.80;;
61840;SDS011;47773;53.174;6.614;2023-06-14T07:22:33;11.05;;;4.80;;
61840;SDS011;47773;53.174;6.614;2023-06-14T07:24:59;11.13;;;5.28;;
61840;SDS011;47773;53.174;6.614;2023-06-14T07:27:25;16.10;;;4.20;;
61840;SDS011;47773;53.174;6.614;2023-06-14T07:29:50;12.00;;;4.40;;
61840;SDS011;47773;53.174;6.614;2023-06-14T07:32:16;12.18;;;4.53;;
61840;SDS011;47773;53.174;6.614;2023-06-14T07:34:41;14.05;;;4.35;;
61840;SDS011;47773;53.174;6.614;2023-06-14T07:37:07;14.73;;;4.57;;
61840;SDS011;47773;53.174;6.614;2023-06-14T07:39:33;11.43;;;5.13;;
61840;SDS011;47773;53.174;6.614;2023-06-14T07:41:58;11.68;;;4.45;;
61840;SDS011;47773;53.174;6.614;2023-06-14T07:44:24;10.80;;;4.40;;
61840;SDS011;47773;53.174;6.614;2023-06-14T07:46:50;9.68;;;4.03;;
61840;SDS011;47773;53.174;6.614;2023-06-14T07:49:15;10.18;;;5.00;;
61840;SDS011;47773;53.174;6.614;2023-06-14T07:51:41;17.23;;;4.30;;
61840;SDS011;47773;53.174;6.614;2023-06-14T07:54:08;16.70;;;4.90;;
61840;SDS011;47773;53.174;6.614;2023-06-14T07:56:34;11.25;;;4.30;;
61840;SDS011;47773;53.174;6.614;2023-06-14T07:59:00;10.13;;;4.40;;
61840;SDS011;47773;53.174;6.614;2023-06-14T08:01:26;9.45;;;4.05;;
61840;SDS011;47773;53.174;6.614;2023-06-14T08:03:53;6.50;;;3.83;;
61840;SDS011;47773;53.174;6.614;2023-06-14T08:06:18;9.65;;;3.60;;
61840;SDS011;47773;53.174;6.614;2023-06-14T08:08:44;17.50;;;3.72;;
61840;SDS011;47773;53.174;6.614;2023-06-14T08:11:10;12.73;;;4.03;;
61840;SDS011;47773;53.174;6.614;2023-06-14T08:13:35;11.98;;;3.60;;
61840;SDS011;47773;53.174;6.614;2023-06-14T08:16:01;10.00;;;3.60;;
61840;SDS011;47773;53.174;6.614;2023-06-14T08:18:29;16.67;;;4.03;;
61840;SDS011;47773;53.174;6.614;2023-06-14T08:20:55;10.70;;;3.88;;
61840;SDS011;47773;53.174;6.614;2023-06-14T08:23:22;8.63;;;3.33;;
61840;SDS011;47773;53.174;6.614;2023-06-14T08:25:48;12.82;;;4.03;;
61840;SDS011;47773;53.174;6.614;2023-06-14T08:28:14;15.20;;;3.75;;
61840;SDS011;47773;53.174;6.614;2023-06-14T08:30:40;8.95;;;3.65;;
61840;SDS011;47773;53.174;6.614;2023-06-14T08:33:07;9.07;;;3.78;;
61840;SDS011;47773;53.174;6.614;2023-06-14T08:35:33;10.68;;;3.30;;
61840;SDS011;47773;53.174;6.614;2023-06-14T08:38:02;14.80;;;3.85;;
61840;SDS011;47773;53.174;6.614;2023-06-14T08:40:29;6.40;;;3.38;;
61840;SDS011;47773;53.174;6.614;2023-06-14T08:42:56;8.02;;;3.05;;
61840;SDS011;47773;53.174;6.614;2023-06-14T08:45:22;16.98;;;3.25;;
61840;SDS011;47773;53.174;6.614;2023-06-14T08:47:52;8.95;;;3.00;;
61840;SDS011;47773;53.174;6.614;2023-06-14T08:50:23;11.93;;;3.50;;
61840;SDS011;47773;53.174;6.614;2023-06-14T08:52:52;14.40;;;3.35;;
61840;SDS011;47773;53.174;6.614;2023-06-14T08:55:20;5.63;;;3.20;;
61840;SDS011;47773;53.174;6.614;2023-06-14T08:57:51;12.13;;;3.33;;
61840;SDS011;47773;53.174;6.614;2023-06-14T09:00:18;7.60;;;2.95;;
61840;SDS011;47773;53.174;6.614;2023-06-14T09:02:45;10.13;;;3.50;;
61840;SDS011;47773;53.174;6.614;2023-06-14T09:05:12;13.50;;;3.33;;
61840;SDS011;47773;53.174;6.614;2023-06-14T09:07:41;9.43;;;3.30;;
61840;SDS011;47773;53.174;6.614;2023-06-14T09:10:08;6.68;;;2.80;;
61840;SDS011;47773;53.174;6.614;2023-06-14T09:12:41;6.50;;;3.35;;
61840;SDS011;47773;53.174;6.614;2023-06-14T09:15:07;7.28;;;3.38;;
61840;SDS011;47773;53.174;6.614;2023-06-14T09:17:34;8.73;;;3.40;;
61840;SDS011;47773;53.174;6.614;2023-06-14T09:20:03;11.25;;;3.00;;
61840;SDS011;47773;53.174;6.614;2023-06-14T09:22:43;8.73;;;3.03;;
61840;SDS011;47773;53.174;6.614;2023-06-14T09:25:09;10.23;;;3.00;;
61840;SDS011;47773;53.174;6.614;2023-06-14T09:27:35;9.52;;;3.33;;
61840;SDS011;47773;53.174;6.614;2023-06-14T09:30:04;5.70;;;3.00;;
61840;SDS011;47773;53.174;6.614;2023-06-14T09:32:36;9.40;;;3.35;;
61840;SDS011;47773;53.174;6.614;2023-06-14T09:35:04;6.57;;;3.33;;
61840;SDS011;47773;53.174;6.614;2023-06-14T09:37:31;10.93;;;3.38;;
61840;SDS011;47773;53.174;6.614;2023-06-14T09:39:57;11.40;;;3.63;;
61840;SDS011;47773;53.174;6.614;2023-06-14T09:42:24;6.35;;;3.28;;
61840;SDS011;47773;53.174;6.614;2023-06-14T09:44:51;7.45;;;3.38;;
61840;SDS011;47773;53.174;6.614;2023-06-14T09:47:19;11.10;;;2.92;;
61840;SDS011;47773;53.174;6.614;2023-06-14T09:49:45;10.20;;;3.38;;
61840;SDS011;47773;53.174;6.614;2023-06-14T09:52:13;7.22;;;3.35;;
61840;SDS011;47773;53.174;6.614;2023-06-14T09:54:43;9.88;;;3.38;;
61840;SDS011;47773;53.174;6.614;2023-06-14T09:57:15;10.63;;;3.13;;
61840;SDS011;47773;53.174;6.614;2023-06-14T09:59:56;15.00;;;2.97;;
61840;SDS011;47773;53.174;6.614;2023-06-14T10:02:25;11.52;;;2.78;;
61840;SDS011;47773;53.174;6.614;2023-06-14T10:05:03;9.00;;;3.33;;
61840;SDS011;47773;53.174;6.614;2023-06-14T10:10:25;9.95;;;3.05;;
61840;SDS011;47773;53.174;6.614;2023-06-14T10:12:51;12.85;;;2.92;;
61840;SDS011;47773;53.174;6.614;2023-06-14T10:15:23;11.93;;;3.08;;
61840;SDS011;47773;53.174;6.614;2023-06-14T10:18:11;8.60;;;2.78;;
61840;SDS011;47773;53.174;6.614;2023-06-14T10:23:29;9.98;;;3.00;;
61840;SDS011;47773;53.174;6.614;2023-06-14T10:25:58;10.57;;;2.85;;
61840;SDS011;47773;53.174;6.614;2023-06-14T10:28:25;14.57;;;2.85;;
61840;SDS011;47773;53.174;6.614;2023-06-14T10:33:29;7.40;;;3.33;;
61840;SDS011;47773;53.174;6.614;2023-06-14T10:38:40;7.25;;;2.65;;
61840;SDS011;47773;53.174;6.614;2023-06-14T10:41:07;15.68;;;4.43;;
61840;SDS011;47773;53.174;6.614;2023-06-14T10:43:33;15.40;;;2.90;;
61840;SDS011;47773;53.174;6.614;2023-06-14T10:46:14;5.22;;;2.90;;
61840;SDS011;47773;53.174;6.614;2023-06-14T10:48:41;16.83;;;3.38;;
61840;SDS011;47773;53.174;6.614;2023-06-14T10:51:15;7.38;;;3.22;;
61840;SDS011;47773;53.174;6.614;2023-06-14T10:53:45;11.52;;;3.03;;
61840;SDS011;47773;53.174;6.614;2023-06-14T10:56:23;6.78;;;2.92;;
61840;SDS011;47773;53.174;6.614;2023-06-14T10:58:51;6.25;;;3.15;;
61840;SDS011;47773;53.174;6.614;2023-06-14T11:01:26;14.05;;;3.10;;
61840;SDS011;47773;53.174;6.614;2023-06-14T11:04:14;17.35;;;3.10;;
61840;SDS011;47773;53.174;6.614;2023-06-14T11:09:54;12.93;;;2.78;;
61840;SDS011;47773;53.174;6.614;2023-06-14T11:12:06;5.43;;;2.60;;
61840;SDS011;47773;53.174;6.614;2023-06-14T11:14:36;12.98;;;2.75;;
61840;SDS011;47773;53.174;6.614;2023-06-14T11:17:02;9.32;;;2.70;;
61840;SDS011;47773;53.174;6.614;2023-06-14T11:19:28;6.22;;;2.80;;
61840;SDS011;47773;53.174;6.614;2023-06-14T11:21:54;10.20;;;2.95;;
61840;SDS011;47773;53.174;6.614;2023-06-14T11:24:20;8.07;;;2.55;;
61840;SDS011;47773;53.174;6.614;2023-06-14T11:26:46;8.30;;;2.70;;
61840;SDS011;47773;53.174;6.614;2023-06-14T11:29:14;4.82;;;2.15;;
61840;SDS011;47773;53.174;6.614;2023-06-14T11:31:43;5.25;;;2.20;;
61840;SDS011;47773;53.174;6.614;2023-06-14T11:34:10;7.28;;;2.28;;
61840;SDS011;47773;53.174;6.614;2023-06-14T11:36:38;6.55;;;2.17;;
61840;SDS011;47773;53.174;6.614;2023-06-14T11:39:05;8.55;;;2.13;;
61840;SDS011;47773;53.174;6.614;2023-06-14T11:41:40;5.78;;;2.25;;
61840;SDS011;47773;53.174;6.614;2023-06-14T11:44:10;10.75;;;2.20;;
61840;SDS011;47773;53.174;6.614;2023-06-14T11:46:36;6.47;;;2.05;;
61840;SDS011;47773;53.174;6.614;2023-06-14T11:49:03;12.18;;;1.75;;
61840;SDS011;47773;53.174;6.614;2023-06-14T11:51:33;8.80;;;2.03;;
61840;SDS011;47773;53.174;6.614;2023-06-14T11:54:00;3.30;;;1.70;;
61840;SDS011;47773;53.174;6.614;2023-06-14T11:56:27;7.18;;;2.28;;
61840;SDS011;47773;53.174;6.614;2023-06-14T11:58:54;5.00;;;2.17;;
61840;SDS011;47773;53.174;6.614;2023-06-14T12:01:23;8.25;;;1.80;;
61840;SDS011;47773;53.174;6.614;2023-06-14T12:03:53;7.53;;;2.08;;
61840;SDS011;47773;53.174;6.614;2023-06-14T12:06:26;6.43;;;2.05;;
61840;SDS011;47773;53.174;6.614;2023-06-14T12:09:04;7.38;;;2.10;;
61840;SDS011;47773;53.174;6.614;2023-06-14T12:11:38;10.50;;;1.95;;
61840;SDS011;47773;53.174;6.614;2023-06-14T12:14:04;5.55;;;2.20;;
61840;SDS011;47773;53.174;6.614;2023-06-14T12:16:31;11.10;;;1.92;;
61840;SDS011;47773;53.174;6.614;2023-06-14T12:19:08;6.07;;;2.30;;
61840;SDS011;47773;53.174;6.614;2023-06-14T12:21:37;11.27;;;2.10;;
61840;SDS011;47773;53.174;6.614;2023-06-14T12:24:05;10.55;;;2.45;;
61840;SDS011;47773;53.174;6.614;2023-06-14T12:26:32;6.22;;;1.90;;
61840;SDS011;47773;53.174;6.614;2023-06-14T12:28:58;5.32;;;2.30;;
61840;SDS011;47773;53.174;6.614;2023-06-14T12:31:24;9.30;;;2.10;;
61840;SDS011;47773;53.174;6.614;2023-06-14T12:33:51;3.60;;;1.75;;
61840;SDS011;47773;53.174;6.614;2023-06-14T12:36:17;6.00;;;1.90;;
61840;SDS011;47773;53.174;6.614;2023-06-14T12:38:44;8.45;;;2.42;;
61840;SDS011;47773;53.174;6.614;2023-06-14T12:41:11;17.73;;;2.17;;
61840;SDS011;47773;53.174;6.614;2023-06-14T12:43:36;7.53;;;2.38;;
61840;SDS011;47773;53.174;6.614;2023-06-14T12:46:02;9.05;;;2.60;;
61840;SDS011;47773;53.174;6.614;2023-06-14T12:48:28;6.95;;;2.30;;
61840;SDS011;47773;53.174;6.614;2023-06-14T12:50:56;11.38;;;2.15;;
61840;SDS011;47773;53.174;6.614;2023-06-14T12:53:22;11.38;;;2.28;;
61840;SDS011;47773;53.174;6.614;2023-06-14T12:55:48;7.30;;;2.42;;
61840;SDS011;47773;53.174;6.614;2023-06-14T12:58:14;9.68;;;2.58;;
61840;SDS011;47773;53.174;6.614;2023-06-14T13:00:42;11.80;;;2.88;;
61840;SDS011;47773;53.174;6.614;2023-06-14T13:03:09;7.97;;;2.25;;
61840;SDS011;47773;53.174;6.614;2023-06-14T13:05:35;5.10;;;2.40;;
61840;SDS011;47773;53.174;6.614;2023-06-14T13:08:02;7.88;;;2.50;;
61840;SDS011;47773;53.174;6.614;2023-06-14T13:10:28;5.25;;;2.10;;
61840;SDS011;47773;53.174;6.614;2023-06-14T13:12:54;6.63;;;2.65;;
61840;SDS011;47773;53.174;6.614;2023-06-14T13:15:19;11.32;;;2.63;;
61840;SDS011;47773;53.174;6.614;2023-06-14T13:17:45;8.15;;;2.78;;
61840;SDS011;47773;53.174;6.614;2023-06-14T13:20:13;13.02;;;2.42;;
61840;SDS011;47773;53.174;6.614;2023-06-14T13:22:40;9.68;;;2.50;;
61840;SDS011;47773;53.174;6.614;2023-06-14T13:25:06;7.35;;;2.35;;
61840;SDS011;47773;53.174;6.614;2023-06-14T13:27:32;3.45;;;2.33;;
61840;SDS011;47773;53.174;6.614;2023-06-14T13:29:58;12.18;;;2.70;;
61840;SDS011;47773;53.174;6.614;2023-06-14T13:32:23;12.52;;;2.85;;
61840;SDS011;47773;53.174;6.614;2023-06-14T13:34:49;10.77;;;2.17;;
61840;SDS011;47773;53.174;6.614;2023-06-14T13:37:15;7.90;;;2.97;;
61840;SDS011;47773;53.174;6.614;2023-06-14T13:39:41;6.45;;;2.55;;
61840;SDS011;47773;53.174;6.614;2023-06-14T13:42:07;9.05;;;2.97;;
61840;SDS011;47773;53.174;6.614;2023-06-14T13:44:33;8.05;;;2.55;;
61840;SDS011;47773;53.174;6.614;2023-06-14T13:46:58;12.77;;;2.95;;
61840;SDS011;47773;53.174;6.614;2023-06-14T13:49:25;5.18;;;2.60;;
61840;SDS011;47773;53.174;6.614;2023-06-14T13:51:50;5.00;;;2.50;;
61840;SDS011;47773;53.174;6.614;2023-06-14T13:54:18;5.78;;;2.50;;
61840;SDS011;47773;53.174;6.614;2023-06-14T13:56:45;9.38;;;2.55;;
61840;SDS011;47773;53.174;6.614;2023-06-14T13:59:11;4.07;;;2.63;;
61840;SDS011;47773;53.174;6.614;2023-06-14T15:13:26;6.18;;;3.20;;
61840;SDS011;47773;53.174;6.614;2023-06-14T15:15:53;8.27;;;3.17;;
61840;SDS011;47773;53.174;6.614;2023-06-14T15:18:18;7.72;;;3.15;;
61840;SDS011;47773;53.174;6.614;2023-06-14T15:20:45;7.70;;;3.08;;
61840;SDS011;47773;53.174;6.614;2023-06-14T15:23:11;9.68;;;2.92;;
61840;SDS011;47773;53.174;6.614;2023-06-14T15:25:39;5.40;;;3.30;;
61840;SDS011;47773;53.174;6.614;2023-06-14T15:28:05;5.88;;;3.40;;
61840;SDS011;47773;53.174;6.614;2023-06-14T15:30:31;5.40;;;2.85;;
61840;SDS011;47773;53.174;6.614;2023-06-14T15:32:57;6.55;;;3.42;;
61840;SDS011;47773;53.174;6.614;2023-06-14T15:35:23;7.57;;;3.63;;
61840;SDS011;47773;53.174;6.614;2023-06-14T15:37:49;12.50;;;3.85;;
61840;SDS011;47773;53.174;6.614;2023-06-14T15:40:15;15.65;;;3.65;;
61840;SDS011;47773;53.174;6.614;2023-06-14T15:42:41;14.43;;;3.35;;
61840;SDS011;47773;53.174;6.614;2023-06-14T15:45:06;8.27;;;3.80;;
61840;SDS011;47773;53.174;6.614;2023-06-14T15:47:32;12.10;;;3.42;;
61840;SDS011;47773;53.174;6.614;2023-06-14T15:49:58;7.60;;;3.40;;
61840;SDS011;47773;53.174;6.614;2023-06-14T15:52:24;8.80;;;3.50;;
61840;SDS011;47773;53.174;6.614;2023-06-14T15:54:50;6.90;;;3.38;;
61840;SDS011;47773;53.174;6.614;2023-06-14T15:57:15;10.02;;;4.07;;
61840;SDS011;47773;53.174;6.614;2023-06-14T15:59:41;9.93;;;3.30;;
61840;SDS011;47773;53.174;6.614;2023-06-14T16:02:07;12.07;;;4.40;;
61840;SDS011;47773;53.174;6.614;2023-06-14T16:04:32;28.98;;;7.85;;
61840;SDS011;47773;53.174;6.614;2023-06-14T16:06:58;14.50;;;4.32;;
61840;SDS011;47773;53.174;6.614;2023-06-14T16:09:23;10.32;;;3.85;;